Time;durP1;ratioP1;P1;durP2;ratioP2;P2;SDS_P1;SDS_P2;PMS_P1;PMS_P2;Temp;Humidity;BMP_temperature;BMP_pressure;BME280_temperature;BME280_humidity;BME280_pressure;Samples;Min_cycle;Max_cycle;Signal;HPM_P1;HPM_P2
2022/09/24 00:00:52;;;;;;;;;;;18.60;69.30;;;;;;4514569;31;20063;-63
2022/09/24 00:03:22;;;;;;;;;;;18.50;69.10;;;;;;4514250;31;20049;-62
2022/09/24 00:05:48;;;;;;;;;;;18.50;69.10;;;;;;4515043;31;20036;-62
2022/09/24 00:08:15;;;;;;;;;;;18.50;69.10;;;;;;4514500;31;20024;-62
2022/09/24 00:10:42;;;;;;;;;;;18.50;69.10;;;;;;4510979;31;20037;-62
2022/09/24 00:13:11;;;;;;;;;;;18.50;69.10;;;;;;4512467;31;20043;-61
2022/09/24 00:15:37;;;;;;;;;;;18.50;69.10;;;;;;4514202;31;20110;-61
2022/09/24 00:18:04;;;;;;;;;;;18.50;69.10;;;;;;4514890;31;20042;-61
2022/09/24 00:20:31;;;;;;;;;;;18.50;69.10;;;;;;4513912;31;20028;-62
2022/09/24 00:22:58;;;;;;;;;;;18.50;69.10;;;;;;4515314;31;20483;-62
2022/09/24 00:28:08;;;;;;;;;;;18.50;69.00;;;;;;4514472;31;20032;-61
2022/09/24 00:30:37;;;;;;;;;;;18.50;69.00;;;;;;4485968;31;20033;-61
2022/09/24 00:33:03;;;;;;;;;;;18.50;69.00;;;;;;4506311;31;20033;-61
2022/09/24 00:35:32;;;;;;;;;;;18.50;69.00;;;;;;4514882;31;20013;-61
2022/09/24 00:37:58;;;;;;;;;;;18.50;69.00;;;;;;4512691;31;20028;-62
2022/09/24 00:40:27;;;;;;;;;;;18.50;69.00;;;;;;4514402;31;20456;-61
2022/09/24 00:42:53;;;;;;;;;;;18.50;69.00;;;;;;4514103;31;20028;-61
2022/09/24 00:45:19;;;;;;;;;;;18.50;68.90;;;;;;4514073;31;20005;-62
2022/09/24 00:47:45;;;;;;;;;;;18.50;68.90;;;;;;4514402;31;20165;-62
2022/09/24 00:50:43;;;;;;;;;;;18.50;69.00;;;;;;4513652;31;20067;-61
2022/09/24 00:53:08;;;;;;;;;;;18.50;68.90;;;;;;4487198;31;20032;-61
2022/09/24 00:55:36;;;;;;;;;;;18.50;69.00;;;;;;4513962;31;20418;-62
2022/09/24 00:58:04;;;;;;;;;;;18.50;68.90;;;;;;4514062;31;20036;-61
2022/09/24 01:00:31;;;;;;;;;;;18.50;68.90;;;;;;4514095;31;20098;-61
2022/09/24 01:03:04;;;;;;;;;;;18.50;68.90;;;;;;4513247;31;20110;-62
2022/09/24 01:05:33;;;;;;;;;;;18.50;68.90;;;;;;4514716;31;20482;-62
2022/09/24 01:07:59;;;;;;;;;;;18.50;68.90;;;;;;4513279;31;20159;-61
2022/09/24 01:10:49;;;;;;;;;;;18.50;68.90;;;;;;4514184;31;20032;-62
2022/09/24 01:13:34;;;;;;;;;;;18.50;68.90;;;;;;4509489;31;20493;-62
2022/09/24 01:16:06;;;;;;;;;;;18.50;68.90;;;;;;4511048;31;20028;-61
2022/09/24 01:18:39;;;;;;;;;;;18.50;68.90;;;;;;4511211;31;20024;-62
2022/09/24 01:21:28;;;;;;;;;;;18.50;68.90;;;;;;4512954;31;20039;-62
2022/09/24 01:23:54;;;;;;;;;;;18.50;68.90;;;;;;4502968;31;20051;-63
2022/09/24 01:26:29;;;;;;;;;;;18.50;68.80;;;;;;4513343;31;20033;-63
2022/09/24 01:29:04;;;;;;;;;;;18.50;68.80;;;;;;4512333;31;20525;-62
2022/09/24 01:31:45;;;;;;;;;;;18.50;68.90;;;;;;4510695;31;20044;-62
2022/09/24 01:34:14;;;;;;;;;;;18.50;68.80;;;;;;4512705;31;20155;-61
2022/09/24 01:36:41;;;;;;;;;;;18.50;68.80;;;;;;4512998;31;20043;-61
2022/09/24 01:39:07;;;;;;;;;;;18.50;68.80;;;;;;4512338;31;20033;-61
2022/09/24 01:41:35;;;;;;;;;;;18.50;68.80;;;;;;4512312;31;20033;-61
2022/09/24 01:44:03;;;;;;;;;;;18.50;68.80;;;;;;4513342;31;20037;-61
2022/09/24 01:46:30;;;;;;;;;;;18.50;68.70;;;;;;4512297;31;20158;-61
2022/09/24 01:48:57;;;;;;;;;;;18.50;68.80;;;;;;4509666;31;20637;-61
2022/09/24 01:51:52;;;;;;;;;;;18.50;68.80;;;;;;4512665;31;20040;-61
2022/09/24 01:54:21;;;;;;;;;;;18.50;68.80;;;;;;4500501;31;20040;-61
2022/09/24 01:56:52;;;;;;;;;;;18.50;68.80;;;;;;4513376;31;20059;-61
2022/09/24 01:59:17;;;;;;;;;;;18.50;68.80;;;;;;4510318;31;20062;-60
2022/09/24 02:01:54;;;;;;;;;;;18.50;68.80;;;;;;4512864;31;20149;-61
2022/09/24 02:04:20;;;;;;;;;;;18.40;68.70;;;;;;4512898;31;20033;-61
2022/09/24 02:06:54;;;;;;;;;;;18.40;68.70;;;;;;4499998;31;20102;-61
2022/09/24 02:09:30;;;;;;;;;;;18.40;68.60;;;;;;4507971;31;20037;-61
2022/09/24 02:11:58;;;;;;;;;;;18.50;68.60;;;;;;4503958;31;20025;-61
2022/09/24 02:14:24;;;;;;;;;;;18.50;68.60;;;;;;4509545;31;20080;-61
2022/09/24 02:16:50;;;;;;;;;;;18.50;69.50;;;;;;4511744;31;20020;-61
2022/09/24 02:19:18;;;;;;;;;;;18.50;68.60;;;;;;4512756;31;20028;-61
2022/09/24 02:21:44;;;;;;;;;;;18.50;68.60;;;;;;4508899;31;20103;-61
2022/09/24 02:24:15;;;;;;;;;;;18.40;68.60;;;;;;4505289;31;20041;-61
2022/09/24 02:26:41;;;;;;;;;;;18.40;68.60;;;;;;4513400;31;20492;-61
2022/09/24 02:29:07;;;;;;;;;;;18.50;68.60;;;;;;4512056;31;20160;-61
2022/09/24 02:31:36;;;;;;;;;;;18.50;68.60;;;;;;4513061;31;20005;-61
2022/09/24 02:34:21;;;;;;;;;;;18.50;68.60;;;;;;4511636;31;20033;-61
2022/09/24 02:36:46;;;;;;;;;;;18.40;68.60;;;;;;4511597;31;20047;-61
2022/09/24 02:39:12;;;;;;;;;;;18.40;68.60;;;;;;4507303;31;20514;-61
2022/09/24 02:41:41;;;;;;;;;;;18.40;68.60;;;;;;4515373;31;20016;-61
2022/09/24 02:44:07;;;;;;;;;;;18.40;68.50;;;;;;4516782;31;20060;-61
2022/09/24 02:46:32;;;;;;;;;;;18.40;68.50;;;;;;4515512;31;20454;-61
2022/09/24 02:48:58;;;;;;;;;;;18.40;68.60;;;;;;4516069;31;20091;-61
2022/09/24 02:51:25;;;;;;;;;;;18.40;68.50;;;;;;4515774;31;20035;-61
2022/09/24 02:53:50;;;;;;;;;;;18.40;68.50;;;;;;4515434;31;20044;-61
2022/09/24 02:56:16;;;;;;;;;;;18.40;68.50;;;;;;4515063;31;20029;-61
2022/09/24 02:58:45;;;;;;;;;;;18.40;68.50;;;;;;4513876;31;20040;-61
2022/09/24 03:01:11;;;;;;;;;;;18.40;68.50;;;;;;4515282;31;20031;-61
2022/09/24 03:03:37;;;;;;;;;;;18.40;68.50;;;;;;4504622;31;20024;-61
2022/09/24 03:06:03;;;;;;;;;;;18.40;68.50;;;;;;4514440;31;20016;-60
2022/09/24 03:08:30;;;;;;;;;;;18.40;68.50;;;;;;4506300;31;20040;-61
2022/09/24 03:10:55;;;;;;;;;;;18.40;68.50;;;;;;4513591;31;20035;-61
2022/09/24 03:13:21;;;;;;;;;;;18.40;68.50;;;;;;4514343;31;20033;-62
2022/09/24 03:15:47;;;;;;;;;;;18.40;68.50;;;;;;4513433;31;20028;-62
2022/09/24 03:18:13;;;;;;;;;;;18.40;68.40;;;;;;4515615;31;20735;-63
2022/09/24 03:20:39;;;;;;;;;;;18.40;68.50;;;;;;4514332;31;20042;-62
2022/09/24 03:23:05;;;;;;;;;;;18.40;68.50;;;;;;4515133;31;20078;-62
2022/09/24 03:25:31;;;;;;;;;;;18.40;68.50;;;;;;4514804;31;20051;-62
2022/09/24 03:27:56;;;;;;;;;;;18.40;68.50;;;;;;4513521;31;20025;-61
2022/09/24 03:33:07;;;;;;;;;;;18.40;68.50;;;;;;4514269;31;20215;-62
2022/09/24 03:35:32;;;;;;;;;;;18.40;68.50;;;;;;4513572;31;20037;-61
2022/09/24 03:37:58;;;;;;;;;;;18.40;68.50;;;;;;4514776;31;20031;-61
2022/09/24 03:40:24;;;;;;;;;;;18.40;68.50;;;;;;4515207;31;20090;-61
2022/09/24 03:42:50;;;;;;;;;;;18.40;68.40;;;;;;4514446;31;20046;-62
2022/09/24 03:45:15;;;;;;;;;;;18.40;68.40;;;;;;4513747;31;20039;-62
2022/09/24 03:47:41;;;;;;;;;;;18.40;68.50;;;;;;4512778;31;20024;-62
2022/09/24 03:50:10;;;;;;;;;;;18.40;68.40;;;;;;4513195;31;20025;-61
2022/09/24 03:52:37;;;;;;;;;;;18.40;68.50;;;;;;4514549;31;20033;-61
2022/09/24 03:55:03;;;;;;;;;;;18.40;68.50;;;;;;4513157;31;20159;-61
2022/09/24 03:57:29;;;;;;;;;;;18.40;68.40;;;;;;4514861;31;20032;-61
2022/09/24 03:59:56;;;;;;;;;;;18.40;68.50;;;;;;4514497;31;20465;-61
2022/09/24 04:02:22;;;;;;;;;;;18.40;68.40;;;;;;4526577;31;20070;-61
2022/09/24 04:04:47;;;;;;;;;;;18.40;68.50;;;;;;4527125;31;20027;-61
2022/09/24 04:07:13;;;;;;;;;;;18.40;68.50;;;;;;4526316;31;20021;-61
2022/09/24 04:09:40;;;;;;;;;;;18.40;68.40;;;;;;4508385;31;20036;-61
2022/09/24 04:12:06;;;;;;;;;;;18.40;68.50;;;;;;4509648;31;20021;-61
2022/09/24 04:14:31;;;;;;;;;;;18.40;68.50;;;;;;4514798;31;20048;-61
2022/09/24 04:16:57;;;;;;;;;;;18.40;68.50;;;;;;4514323;31;20094;-61
2022/09/24 04:19:24;;;;;;;;;;;18.40;68.40;;;;;;4526433;31;20134;-61
2022/09/24 04:21:49;;;;;;;;;;;18.40;68.40;;;;;;4514604;31;20099;-60
2022/09/24 04:24:15;;;;;;;;;;;18.40;68.40;;;;;;4514104;31;20147;-61
2022/09/24 04:26:43;;;;;;;;;;;18.30;68.40;;;;;;4514010;31;20043;-60
2022/09/24 04:29:08;;;;;;;;;;;18.40;69.30;;;;;;4512718;31;20016;-61
2022/09/24 04:31:34;;;;;;;;;;;18.40;68.40;;;;;;4512226;31;20024;-60
2022/09/24 04:34:00;;;;;;;;;;;18.40;68.50;;;;;;4513692;31;20133;-61
2022/09/24 04:36:26;;;;;;;;;;;18.40;68.30;;;;;;4513776;31;20020;-61
2022/09/24 04:38:52;;;;;;;;;;;18.30;68.30;;;;;;4513674;31;20081;-61
2022/09/24 04:41:17;;;;;;;;;;;18.40;68.40;;;;;;4513340;31;20036;-61
2022/09/24 04:43:45;;;;;;;;;;;18.40;68.40;;;;;;4510908;31;20497;-61
2022/09/24 04:46:12;;;;;;;;;;;18.40;68.40;;;;;;4513318;31;20029;-61
2022/09/24 04:48:38;;;;;;;;;;;18.40;68.40;;;;;;4512897;31;20044;-61
2022/09/24 04:51:05;;;;;;;;;;;18.40;68.30;;;;;;4513494;31;20394;-61
2022/09/24 04:53:31;;;;;;;;;;;18.40;68.40;;;;;;4512172;31;20039;-61
2022/09/24 04:55:58;;;;;;;;;;;18.40;68.40;;;;;;4513503;31;20028;-61
2022/09/24 04:58:24;;;;;;;;;;;18.40;68.40;;;;;;4512530;31;20665;-61
2022/09/24 05:00:52;;;;;;;;;;;18.30;68.30;;;;;;4513245;31;20045;-61
2022/09/24 05:03:20;;;;;;;;;;;18.30;68.30;;;;;;4512206;31;20040;-61
2022/09/24 05:05:45;;;;;;;;;;;18.30;68.30;;;;;;4514111;31;20039;-61
2022/09/24 05:08:12;;;;;;;;;;;18.30;68.30;;;;;;4509936;31;20021;-61
2022/09/24 05:10:38;;;;;;;;;;;18.30;68.30;;;;;;4510869;31;20452;-61
2022/09/24 05:13:04;;;;;;;;;;;18.30;68.30;;;;;;4513819;31;20032;-61
2022/09/24 05:15:30;;;;;;;;;;;18.30;68.30;;;;;;4513204;31;20028;-61
2022/09/24 05:17:56;;;;;;;;;;;18.30;68.30;;;;;;4526227;31;20031;-61
2022/09/24 05:20:21;;;;;;;;;;;18.30;68.30;;;;;;4513074;31;20024;-61
2022/09/24 05:22:48;;;;;;;;;;;18.30;68.30;;;;;;4513929;31;20043;-61
2022/09/24 05:25:15;;;;;;;;;;;18.30;68.30;;;;;;4513123;31;20032;-61
2022/09/24 05:27:44;;;;;;;;;;;18.30;68.30;;;;;;4513600;31;20397;-61
2022/09/24 05:30:11;;;;;;;;;;;18.30;68.30;;;;;;4513156;31;20094;-61
2022/09/24 05:32:36;;;;;;;;;;;18.30;68.30;;;;;;4504012;31;20080;-62
2022/09/24 05:35:02;;;;;;;;;;;18.30;68.30;;;;;;4510979;31;20131;-61
2022/09/24 05:37:28;;;;;;;;;;;18.30;68.30;;;;;;4512849;31;20028;-61
2022/09/24 05:39:54;;;;;;;;;;;18.30;68.30;;;;;;4513798;31;20126;-61
2022/09/24 05:42:20;;;;;;;;;;;18.30;68.30;;;;;;4512082;31;20226;-61
2022/09/24 05:44:47;;;;;;;;;;;18.30;68.30;;;;;;4512180;31;20028;-61
2022/09/24 05:47:12;;;;;;;;;;;18.30;68.30;;;;;;4500805;31;20041;-61
2022/09/24 05:49:38;;;;;;;;;;;18.30;68.30;;;;;;4513308;31;20017;-61
2022/09/24 05:52:05;;;;;;;;;;;18.30;68.30;;;;;;4510358;31;20075;-61
2022/09/24 05:54:32;;;;;;;;;;;18.30;68.30;;;;;;4495729;31;20049;-61
2022/09/24 05:56:58;;;;;;;;;;;18.30;68.30;;;;;;4509505;31;20017;-61
2022/09/24 05:59:24;;;;;;;;;;;18.30;68.30;;;;;;4511680;31;20055;-61
2022/09/24 06:01:51;;;;;;;;;;;18.30;68.30;;;;;;4513179;31;20102;-61
2022/09/24 06:04:17;;;;;;;;;;;18.30;68.40;;;;;;4511956;31;20028;-61
2022/09/24 06:06:43;;;;;;;;;;;18.30;68.30;;;;;;4511752;31;20024;-61
2022/09/24 06:09:08;;;;;;;;;;;18.30;68.30;;;;;;4502089;31;20159;-61
2022/09/24 06:11:34;;;;;;;;;;;18.30;68.30;;;;;;4512672;31;20025;-61
2022/09/24 06:14:02;;;;;;;;;;;18.30;68.30;;;;;;4513559;31;20137;-61
2022/09/24 06:16:28;;;;;;;;;;;18.30;68.30;;;;;;4512623;31;20036;-61
2022/09/24 06:18:53;;;;;;;;;;;18.30;68.30;;;;;;4513088;31;20373;-61
2022/09/24 06:21:20;;;;;;;;;;;18.30;68.30;;;;;;4512686;31;20013;-61
2022/09/24 06:23:47;;;;;;;;;;;18.30;68.30;;;;;;4512852;31;20047;-61
2022/09/24 06:26:13;;;;;;;;;;;18.30;68.30;;;;;;4513169;31;20033;-61
2022/09/24 06:28:39;;;;;;;;;;;18.30;68.20;;;;;;4512177;31;20167;-60
2022/09/24 06:31:06;;;;;;;;;;;18.30;68.30;;;;;;4513536;31;20098;-61
2022/09/24 06:33:34;;;;;;;;;;;18.30;68.30;;;;;;4512323;31;20057;-61
2022/09/24 06:36:01;;;;;;;;;;;18.30;68.30;;;;;;4511905;31;20121;-61
2022/09/24 06:38:27;;;;;;;;;;;18.30;68.30;;;;;;4501325;31;20039;-60
2022/09/24 06:40:57;;;;;;;;;;;18.30;68.30;;;;;;4512721;31;20114;-60
2022/09/24 06:43:22;;;;;;;;;;;18.30;68.50;;;;;;4513188;31;20409;-60
2022/09/24 06:45:48;;;;;;;;;;;18.30;68.60;;;;;;4512238;31;20036;-60
2022/09/24 06:48:14;;;;;;;;;;;18.30;68.60;;;;;;4513442;31;20171;-60
2022/09/24 06:50:42;;;;;;;;;;;18.30;68.60;;;;;;4512211;31;20493;-60
2022/09/24 06:53:10;;;;;;;;;;;18.30;68.60;;;;;;4512942;31;20049;-59
2022/09/24 06:55:37;;;;;;;;;;;18.30;68.90;;;;;;4512521;31;20163;-60
2022/09/24 06:58:07;;;;;;;;;;;18.30;68.90;;;;;;4512537;31;20282;-61
2022/09/24 07:00:33;;;;;;;;;;;18.30;69.00;;;;;;4512604;31;20024;-60
2022/09/24 07:02:59;;;;;;;;;;;18.30;69.00;;;;;;4511016;31;20094;-60
2022/09/24 07:05:25;;;;;;;;;;;18.30;69.10;;;;;;4501961;31;20033;-61
2022/09/24 07:07:51;;;;;;;;;;;18.30;69.20;;;;;;4512447;31;20037;-61
2022/09/24 07:10:17;;;;;;;;;;;18.30;69.20;;;;;;4512863;31;20032;-61
2022/09/24 07:12:42;;;;;;;;;;;18.30;69.20;;;;;;4512361;31;20029;-61
2022/09/24 07:15:09;;;;;;;;;;;18.30;69.20;;;;;;4512400;31;20028;-61
2022/09/24 07:17:35;;;;;;;;;;;18.30;69.30;;;;;;4512723;31;20443;-61
2022/09/24 07:20:01;;;;;;;;;;;18.30;69.30;;;;;;4512087;31;20421;-61
2022/09/24 07:22:26;;;;;;;;;;;18.30;69.40;;;;;;4514882;31;20004;-61
2022/09/24 07:24:52;;;;;;;;;;;18.30;69.40;;;;;;4514998;31;20167;-61
2022/09/24 07:27:20;;;;;;;;;;;18.30;69.40;;;;;;4514722;31;20098;-60
2022/09/24 07:29:46;;;;;;;;;;;18.30;69.30;;;;;;4514931;31;20129;-60
2022/09/24 07:32:14;;;;;;;;;;;18.30;69.30;;;;;;4514850;31;20036;-61
2022/09/24 07:34:40;;;;;;;;;;;18.30;69.30;;;;;;4514002;31;20040;-60
2022/09/24 07:37:05;;;;;;;;;;;18.30;69.30;;;;;;4497826;31;20159;-61
2022/09/24 07:39:31;;;;;;;;;;;18.30;69.20;;;;;;4511039;31;20033;-61
2022/09/24 07:41:58;;;;;;;;;;;18.30;69.30;;;;;;4514530;31;20043;-60
2022/09/24 07:44:28;;;;;;;;;;;18.30;69.30;;;;;;4506933;31;20087;-60
2022/09/24 07:46:54;;;;;;;;;;;18.30;69.20;;;;;;4513481;31;20133;-61
2022/09/24 07:49:20;;;;;;;;;;;18.30;69.20;;;;;;4515065;31;20459;-60
2022/09/24 07:51:46;;;;;;;;;;;18.30;69.30;;;;;;4515202;31;20025;-61
2022/09/24 07:54:12;;;;;;;;;;;18.30;69.50;;;;;;4514350;31;20021;-60
2022/09/24 07:56:38;;;;;;;;;;;18.30;69.50;;;;;;4515569;31;20025;-60
2022/09/24 07:59:06;;;;;;;;;;;18.30;69.50;;;;;;4514219;31;20224;-60
2022/09/24 08:01:33;;;;;;;;;;;18.30;69.60;;;;;;4515043;31;20035;-60
2022/09/24 08:03:59;;;;;;;;;;;18.30;70.50;;;;;;4514550;31;20142;-60
2022/09/24 08:06:26;;;;;;;;;;;18.30;69.70;;;;;;4514831;31;20155;-61
2022/09/24 08:08:52;;;;;;;;;;;18.30;69.80;;;;;;4514674;31;20033;-60
2022/09/24 08:11:18;;;;;;;;;;;18.30;70.10;;;;;;4514329;31;20021;-61
2022/09/24 08:13:44;;;;;;;;;;;18.30;70.30;;;;;;4515255;31;20048;-62
2022/09/24 08:16:10;;;;;;;;;;;18.30;70.40;;;;;;4513869;31;20021;-61
2022/09/24 08:18:36;;;;;;;;;;;18.30;70.50;;;;;;4514912;31;20040;-61
2022/09/24 08:21:02;;;;;;;;;;;18.40;70.60;;;;;;4514365;31;20032;-60
2022/09/24 08:23:28;;;;;;;;;;;18.40;70.60;;;;;;4514441;31;20033;-60
2022/09/24 08:25:54;;;;;;;;;;;18.40;70.50;;;;;;4514528;31;20088;-61
2022/09/24 08:28:20;;;;;;;;;;;18.40;70.60;;;;;;4513631;31;20090;-61
2022/09/24 08:30:46;;;;;;;;;;;18.40;70.40;;;;;;4514281;31;20147;-63
2022/09/24 08:33:11;;;;;;;;;;;18.40;70.80;;;;;;4510919;31;20032;-60
2022/09/24 08:35:40;;;;;;;;;;;18.40;70.70;;;;;;4514510;31;20021;-60
2022/09/24 08:38:06;;;;;;;;;;;18.40;70.70;;;;;;4510830;31;20068;-60
2022/09/24 08:40:35;;;;;;;;;;;18.40;70.50;;;;;;4513762;31;20043;-61
2022/09/24 08:43:10;;;;;;;;;;;18.40;70.30;;;;;;4514314;31;20021;-61
2022/09/24 08:48:28;;;;;;;;;;;18.40;70.40;;;;;;4510468;31;20024;-61
2022/09/24 08:51:06;;;;;;;;;;;18.40;70.40;;;;;;4513931;31;20039;-64
2022/09/24 08:53:52;;;;;;;;;;;18.40;70.20;;;;;;4509450;31;20052;-60
2022/09/24 08:56:19;;;;;;;;;;;18.40;70.30;;;;;;4511074;31;20028;-61
2022/09/24 08:58:51;;;;;;;;;;;18.40;70.50;;;;;;4513302;31;20212;-62
2022/09/24 09:01:31;;;;;;;;;;;18.40;70.50;;;;;;4511581;31;20144;-61
2022/09/24 09:04:02;;;;;;;;;;;18.40;70.40;;;;;;4513780;31;20029;-61
2022/09/24 09:06:28;;;;;;;;;;;18.40;70.40;;;;;;4513768;31;20037;-61
2022/09/24 09:09:08;;;;;;;;;;;18.40;70.20;;;;;;4514085;31;20020;-61
2022/09/24 09:11:35;;;;;;;;;;;18.40;70.20;;;;;;4506473;31;20040;-61
2022/09/24 09:14:07;;;;;;;;;;;18.40;70.10;;;;;;4514000;31;20025;-61
2022/09/24 09:16:38;;;;;;;;;;;18.40;70.10;;;;;;4513258;31;20032;-61
2022/09/24 09:19:08;;;;;;;;;;;18.40;70.20;;;;;;4513742;31;20053;-61
2022/09/24 09:21:36;;;;;;;;;;;18.40;70.10;;;;;;4513720;31;20091;-61
2022/09/24 09:24:03;;;;;;;;;;;18.40;70.10;;;;;;4513307;31;20198;-61
2022/09/24 09:26:30;;;;;;;;;;;18.40;71.10;;;;;;4514176;31;20028;-61
2022/09/24 09:29:00;;;;;;;;;;;18.40;70.10;;;;;;4513109;31;20051;-61
2022/09/24 09:31:29;;;;;;;;;;;18.40;70.10;;;;;;4513630;31;20037;-61
2022/09/24 09:33:58;;;;;;;;;;;18.40;70.00;;;;;;4513557;31;20055;-61
2022/09/24 09:36:34;;;;;;;;;;;18.40;70.00;;;;;;4513343;31;20037;-61
2022/09/24 09:39:08;;;;;;;;;;;18.40;70.00;;;;;;4497807;31;20025;-61
2022/09/24 09:41:39;;;;;;;;;;;18.50;70.10;;;;;;4507223;31;20060;-61
2022/09/24 09:44:18;;;;;;;;;;;18.40;70.10;;;;;;4508446;31;20041;-61
2022/09/24 09:46:54;;;;;;;;;;;18.50;70.10;;;;;;4507485;31;20040;-61
2022/09/24 09:49:20;;;;;;;;;;;18.40;70.10;;;;;;4503749;31;20133;-61
2022/09/24 09:51:47;;;;;;;;;;;18.50;70.10;;;;;;4512289;31;20041;-61
2022/09/24 09:54:13;;;;;;;;;;;18.50;70.10;;;;;;4512563;31;20093;-61
2022/09/24 09:56:44;;;;;;;;;;;18.50;70.10;;;;;;4513896;31;20044;-61
2022/09/24 09:59:10;;;;;;;;;;;18.40;70.00;;;;;;4512771;31;20139;-61
2022/09/24 10:01:39;;;;;;;;;;;18.40;70.00;;;;;;4513293;31;20039;-61
2022/09/24 10:04:22;;;;;;;;;;;18.50;70.10;;;;;;4512063;31;20039;-61
2022/09/24 10:06:48;;;;;;;;;;;18.40;70.00;;;;;;4512905;31;20032;-61
2022/09/24 10:09:15;;;;;;;;;;;18.50;70.00;;;;;;4513388;31;20012;-61
2022/09/24 10:11:41;;;;;;;;;;;18.50;70.00;;;;;;4512585;31;20033;-61
2022/09/24 10:14:11;;;;;;;;;;;18.50;70.10;;;;;;4513329;31;20024;-61
2022/09/24 10:16:50;;;;;;;;;;;18.50;70.10;;;;;;4512777;31;20029;-61
2022/09/24 10:19:18;;;;;;;;;;;18.40;70.00;;;;;;4512710;31;20149;-61
2022/09/24 10:21:44;;;;;;;;;;;18.40;70.10;;;;;;4511943;31;20451;-61
2022/09/24 10:24:18;;;;;;;;;;;18.50;70.10;;;;;;4512514;31;20035;-61
2022/09/24 10:26:45;;;;;;;;;;;18.50;70.10;;;;;;4513371;31;20154;-61
2022/09/24 10:32:01;;;;;;;;;;;18.40;70.10;;;;;;4512477;31;20036;-61
2022/09/24 10:34:27;;;;;;;;;;;18.40;70.10;;;;;;4513090;31;20067;-61
2022/09/24 10:37:01;;;;;;;;;;;18.50;70.10;;;;;;4512325;31;20126;-62
2022/09/24 10:39:27;;;;;;;;;;;18.40;70.90;;;;;;4504838;31;20081;-61
2022/09/24 10:41:55;;;;;;;;;;;18.40;70.10;;;;;;4509820;31;20036;-61
2022/09/24 10:44:22;;;;;;;;;;;18.40;70.10;;;;;;4512980;31;20021;-61
2022/09/24 10:46:53;;;;;;;;;;;18.40;70.10;;;;;;4512431;31;20106;-61
2022/09/24 10:49:19;;;;;;;;;;;18.40;70.10;;;;;;4512773;31;20055;-61
2022/09/24 10:51:44;;;;;;;;;;;18.40;70.10;;;;;;4512993;31;20502;-61
2022/09/24 10:54:13;;;;;;;;;;;18.40;70.00;;;;;;4511901;31;20025;-62
2022/09/24 10:56:43;;;;;;;;;;;18.40;70.90;;;;;;4513404;31;20095;-63
2022/09/24 10:59:24;;;;;;;;;;;18.40;70.20;;;;;;4511678;31;20033;-62
2022/09/24 11:02:12;;;;;;;;;;;18.50;70.20;;;;;;4512107;31;20088;-61
2022/09/24 11:04:39;;;;;;;;;;;18.40;70.10;;;;;;4513375;31;20040;-62
2022/09/24 11:07:11;;;;;;;;;;;18.50;70.40;;;;;;4514624;31;20047;-62
2022/09/24 11:09:46;;;;;;;;;;;18.50;70.50;;;;;;4514105;31;20151;-62
2022/09/24 11:12:51;;;;;;;;;;;18.50;70.40;;;;;;4514101;31;20072;-61
2022/09/24 11:15:24;;;;;;;;;;;18.50;70.40;;;;;;4514908;31;20048;-62
2022/09/24 11:17:50;;;;;;;;;;;18.50;70.40;;;;;;4515559;31;20146;-61
2022/09/24 11:20:16;;;;;;;;;;;18.50;70.30;;;;;;4514366;31;20028;-61
2022/09/24 11:22:44;;;;;;;;;;;18.50;70.40;;;;;;4514345;31;20036;-61
2022/09/24 11:25:43;;;;;;;;;;;18.50;70.40;;;;;;4514695;31;20036;-61
2022/09/24 11:28:09;;;;;;;;;;;18.50;70.70;;;;;;4486108;31;20032;-61
2022/09/24 11:30:34;;;;;;;;;;;18.50;70.70;;;;;;4513299;31;20044;-61
2022/09/24 11:33:20;;;;;;;;;;;18.50;70.80;;;;;;4513682;31;20028;-61
2022/09/24 11:36:04;;;;;;;;;;;18.50;70.90;;;;;;4513833;31;20051;-62
2022/09/24 11:38:42;;;;;;;;;;;18.50;70.80;;;;;;4514011;31;20505;-62
2022/09/24 11:41:28;;;;;;;;;;;18.50;70.70;;;;;;4513865;31;20073;-62
2022/09/24 11:44:17;;;;;;;;;;;18.50;70.80;;;;;;4514795;31;20064;-61
2022/09/24 11:46:46;;;;;;;;;;;18.60;70.70;;;;;;4514087;31;20094;-61
2022/09/24 11:49:24;;;;;;;;;;;18.50;70.70;;;;;;4514193;31;20028;-61
2022/09/24 11:51:53;;;;;;;;;;;18.50;70.70;;;;;;4514424;31;20156;-61
2022/09/24 11:54:19;;;;;;;;;;;18.60;70.70;;;;;;4513619;31;20033;-62
2022/09/24 11:56:48;;;;;;;;;;;18.50;70.70;;;;;;4514845;31;20013;-61
2022/09/24 11:59:22;;;;;;;;;;;18.60;70.70;;;;;;4512127;31;20025;-63
2022/09/24 12:01:51;;;;;;;;;;;18.60;70.70;;;;;;4514446;31;20072;-62
2022/09/24 12:04:17;;;;;;;;;;;18.60;70.70;;;;;;4513689;31;20032;-61
2022/09/24 12:07:04;;;;;;;;;;;18.60;70.80;;;;;;4514464;31;20048;-62
2022/09/24 12:09:32;;;;;;;;;;;18.60;70.90;;;;;;4514253;31;20043;-61
2022/09/24 12:12:19;;;;;;;;;;;18.60;70.80;;;;;;4513500;31;20032;-62
2022/09/24 12:14:45;;;;;;;;;;;18.70;70.90;;;;;;4513805;31;20025;-61
2022/09/24 12:17:31;;;;;;;;;;;18.60;70.80;;;;;;4514346;31;20025;-61
2022/09/24 12:20:00;;;;;;;;;;;18.60;71.00;;;;;;4481740;31;20117;-62
2022/09/24 12:22:27;;;;;;;;;;;18.70;70.90;;;;;;4515116;31;20048;-61
2022/09/24 12:24:57;;;;;;;;;;;18.70;70.80;;;;;;4513390;31;20043;-61
2022/09/24 12:27:33;;;;;;;;;;;18.70;70.80;;;;;;4514283;31;20066;-61
2022/09/24 12:33:02;;;;;;;;;;;18.70;71.10;;;;;;4513493;31;20469;-61
2022/09/24 12:35:40;;;;;;;;;;;18.70;71.00;;;;;;4514485;31;20044;-61
2022/09/24 12:38:08;;;;;;;;;;;18.70;71.10;;;;;;4513619;31;20115;-62
2022/09/24 12:40:34;;;;;;;;;;;18.70;71.00;;;;;;4513905;31;20036;-62
2022/09/24 12:43:01;;;;;;;;;;;18.70;71.00;;;;;;4513676;31;20393;-63
2022/09/24 12:45:27;;;;;;;;;;;18.70;71.00;;;;;;4512966;31;20401;-62
2022/09/24 12:47:55;;;;;;;;;;;18.70;70.70;;;;;;4514353;31;20033;-61
2022/09/24 12:50:23;;;;;;;;;;;18.70;70.70;;;;;;4513830;31;20040;-61
2022/09/24 12:52:49;;;;;;;;;;;18.70;70.70;;;;;;4514138;31;20088;-61
2022/09/24 12:55:29;;;;;;;;;;;18.70;70.70;;;;;;4513433;31;20031;-61
2022/09/24 12:58:03;;;;;;;;;;;18.70;70.60;;;;;;4504698;31;20033;-61
2022/09/24 13:00:46;;;;;;;;;;;18.60;70.60;;;;;;4514141;31;20079;-61
2022/09/24 13:03:30;;;;;;;;;;;18.70;70.60;;;;;;4513771;31;20033;-62
2022/09/24 13:05:58;;;;;;;;;;;18.70;70.50;;;;;;4513697;31;20232;-61
2022/09/24 13:08:33;;;;;;;;;;;18.60;70.60;;;;;;4510137;31;20080;-61
2022/09/24 13:11:04;;;;;;;;;;;18.60;70.50;;;;;;4508363;31;20033;-61
2022/09/24 13:13:31;;;;;;;;;;;18.60;70.60;;;;;;4507395;31;20052;-61
2022/09/24 13:15:58;;;;;;;;;;;18.60;70.50;;;;;;4511260;31;20045;-61
2022/09/24 13:18:24;;;;;;;;;;;18.60;70.50;;;;;;4514113;31;20036;-61
2022/09/24 13:21:01;;;;;;;;;;;18.60;70.50;;;;;;4512863;31;20343;-61
2022/09/24 13:23:28;;;;;;;;;;;18.60;70.40;;;;;;4513468;31;20028;-61
2022/09/24 13:25:58;;;;;;;;;;;18.60;70.50;;;;;;4513931;31;20029;-61
2022/09/24 13:28:28;;;;;;;;;;;18.60;70.50;;;;;;4512987;31;20039;-61
2022/09/24 13:30:58;;;;;;;;;;;18.60;70.50;;;;;;4513975;31;20044;-61
2022/09/24 13:33:30;;;;;;;;;;;18.60;70.50;;;;;;4512958;31;20072;-61
2022/09/24 13:36:02;;;;;;;;;;;18.60;70.50;;;;;;4513759;31;20494;-62
2022/09/24 13:38:40;;;;;;;;;;;18.60;70.60;;;;;;4513289;31;20037;-61
2022/09/24 13:41:15;;;;;;;;;;;18.60;70.50;;;;;;4513052;31;20051;-61
2022/09/24 13:43:47;;;;;;;;;;;18.60;71.30;;;;;;4514079;31;20025;-61
2022/09/24 13:46:15;;;;;;;;;;;18.60;70.50;;;;;;4512997;31;20031;-61
2022/09/24 13:48:47;;;;;;;;;;;18.60;70.50;;;;;;4513496;31;20016;-61
2022/09/24 13:51:14;;;;;;;;;;;18.60;70.40;;;;;;4513498;31;20171;-61
2022/09/24 13:53:42;;;;;;;;;;;18.60;70.40;;;;;;4512792;31;20044;-61
2022/09/24 13:56:13;;;;;;;;;;;18.60;70.40;;;;;;4513849;31;20064;-61
2022/09/24 13:58:40;;;;;;;;;;;18.60;70.50;;;;;;4512399;31;20029;-61
2022/09/24 14:01:10;;;;;;;;;;;18.60;70.50;;;;;;4513565;31;20032;-61
2022/09/24 14:03:36;;;;;;;;;;;18.60;70.40;;;;;;4513057;31;20052;-61
2022/09/24 14:06:12;;;;;;;;;;;18.60;70.50;;;;;;4513021;31;20036;-61
2022/09/24 14:08:40;;;;;;;;;;;18.60;70.50;;;;;;4513275;31;20037;-61
2022/09/24 14:11:12;;;;;;;;;;;18.60;70.40;;;;;;4483225;31;20036;-61
2022/09/24 14:13:44;;;;;;;;;;;18.60;70.50;;;;;;4507483;31;20029;-61
2022/09/24 14:16:23;;;;;;;;;;;18.60;70.40;;;;;;4511466;31;20043;-62
2022/09/24 14:18:59;;;;;;;;;;;18.60;70.40;;;;;;4513006;31;20025;-62
2022/09/24 14:21:36;;;;;;;;;;;18.60;70.40;;;;;;4513039;31;20470;-62
2022/09/24 14:24:04;;;;;;;;;;;18.60;70.40;;;;;;4511617;31;20013;-62
2022/09/24 14:26:31;;;;;;;;;;;18.60;70.50;;;;;;4502449;31;20025;-62
2022/09/24 14:28:58;;;;;;;;;;;18.60;70.40;;;;;;4512480;31;20093;-62
2022/09/24 14:31:24;;;;;;;;;;;18.60;70.40;;;;;;4511125;31;20028;-62
2022/09/24 14:33:50;;;;;;;;;;;18.60;70.40;;;;;;4512747;31;20193;-62
2022/09/24 14:36:16;;;;;;;;;;;18.60;70.30;;;;;;4512511;31;20029;-62
2022/09/24 14:38:49;;;;;;;;;;;18.60;70.40;;;;;;4512879;31;20032;-62
2022/09/24 14:41:15;;;;;;;;;;;18.60;70.40;;;;;;4512509;31;20163;-62